Texas Township, Illinois
Current Conditions -  °F | °C
As of 1:55 AM on Tuesday 21 Oct 2014 (Local Time) from KAAA Reporting Station
Clear Clear  
Wind Chill: 47°   Ceiling: Unl
Heat Index: 47°   Visibility: 10mi
Dew Point: 43°   Wind: 3mph
Humidity: 85%   Direction: 10°N
Pressure: 30.01"   Gusts: NA
Location:  40.143°N, 88.9637°W
Report Text: KAAA 210655Z AUTO 01003KT 10SM CLR 09/06 A3001 RMK AO2 T00850061
Loading
Personal Weather Stations






























Interactive Weather Map
Tropical Storm Tracking
New forecast layout! Learn more

10-Day Weather Forecast

Advertisements
Track Severe Weather on mobile